sensor_id;sensor_type;location;lat;lon;timestamp;P1;durP1;ratioP1;P2;durP2;ratioP2
13386;SDS011;6763;48.524;9.044;2022-08-19T00:01:50;9.50;;;8.50;;
13386;SDS011;6763;48.524;9.044;2022-08-19T00:04:18;8.20;;;7.32;;
13386;SDS011;6763;48.524;9.044;2022-08-19T00:06:46;7.63;;;6.82;;
13386;SDS011;6763;48.524;9.044;2022-08-19T00:09:13;9.77;;;7.45;;
13386;SDS011;6763;48.524;9.044;2022-08-19T00:11:40;7.55;;;6.70;;
13386;SDS011;6763;48.524;9.044;2022-08-19T00:14:08;7.90;;;7.05;;
13386;SDS011;6763;48.524;9.044;2022-08-19T00:16:35;7.25;;;6.53;;
13386;SDS011;6763;48.524;9.044;2022-08-19T00:19:02;7.10;;;6.38;;
13386;SDS011;6763;48.524;9.044;2022-08-19T00:21:28;8.05;;;6.82;;
13386;SDS011;6763;48.524;9.044;2022-08-19T00:23:54;8.77;;;6.95;;
13386;SDS011;6763;48.524;9.044;2022-08-19T00:26:23;9.25;;;6.68;;
13386;SDS011;6763;48.524;9.044;2022-08-19T00:28:49;8.85;;;7.68;;
13386;SDS011;6763;48.524;9.044;2022-08-19T00:31:14;8.23;;;6.93;;
13386;SDS011;6763;48.524;9.044;2022-08-19T00:33:41;8.07;;;7.13;;
13386;SDS011;6763;48.524;9.044;2022-08-19T00:36:06;7.97;;;6.95;;
13386;SDS011;6763;48.524;9.044;2022-08-19T00:38:35;8.95;;;6.95;;
13386;SDS011;6763;48.524;9.044;2022-08-19T00:41:02;7.20;;;6.40;;
13386;SDS011;6763;48.524;9.044;2022-08-19T00:43:28;8.35;;;7.20;;
13386;SDS011;6763;48.524;9.044;2022-08-19T00:45:54;9.00;;;7.10;;
13386;SDS011;6763;48.524;9.044;2022-08-19T00:48:20;8.65;;;7.38;;
13386;SDS011;6763;48.524;9.044;2022-08-19T00:50:47;9.05;;;7.00;;
13386;SDS011;6763;48.524;9.044;2022-08-19T00:53:16;8.75;;;7.70;;
13386;SDS011;6763;48.524;9.044;2022-08-19T00:55:45;9.63;;;7.70;;
13386;SDS011;6763;48.524;9.044;2022-08-19T00:58:14;8.07;;;7.28;;
13386;SDS011;6763;48.524;9.044;2022-08-19T01:00:42;8.95;;;7.75;;
13386;SDS011;6763;48.524;9.044;2022-08-19T01:03:12;10.23;;;8.05;;
13386;SDS011;6763;48.524;9.044;2022-08-19T01:05:41;9.55;;;6.97;;
13386;SDS011;6763;48.524;9.044;2022-08-19T01:08:08;9.65;;;7.40;;
13386;SDS011;6763;48.524;9.044;2022-08-19T01:10:37;9.80;;;7.70;;
13386;SDS011;6763;48.524;9.044;2022-08-19T01:13:06;9.48;;;8.07;;
13386;SDS011;6763;48.524;9.044;2022-08-19T01:15:33;8.55;;;7.43;;
13386;SDS011;6763;48.524;9.044;2022-08-19T01:18:07;11.65;;;8.60;;
13386;SDS011;6763;48.524;9.044;2022-08-19T01:20:35;9.60;;;7.55;;
13386;SDS011;6763;48.524;9.044;2022-08-19T01:23:01;9.73;;;8.20;;
13386;SDS011;6763;48.524;9.044;2022-08-19T01:25:29;11.93;;;7.85;;
13386;SDS011;6763;48.524;9.044;2022-08-19T01:27:58;9.10;;;7.82;;
13386;SDS011;6763;48.524;9.044;2022-08-19T01:30:25;10.07;;;7.78;;
13386;SDS011;6763;48.524;9.044;2022-08-19T01:32:54;10.63;;;8.20;;
13386;SDS011;6763;48.524;9.044;2022-08-19T01:35:20;9.60;;;7.78;;
13386;SDS011;6763;48.524;9.044;2022-08-19T01:37:52;10.48;;;8.73;;
13386;SDS011;6763;48.524;9.044;2022-08-19T01:40:22;8.98;;;7.45;;
13386;SDS011;6763;48.524;9.044;2022-08-19T01:42:51;11.40;;;8.63;;
13386;SDS011;6763;48.524;9.044;2022-08-19T01:45:18;11.00;;;8.60;;
13386;SDS011;6763;48.524;9.044;2022-08-19T01:47:45;10.02;;;8.40;;
13386;SDS011;6763;48.524;9.044;2022-08-19T01:50:11;10.43;;;8.52;;
13386;SDS011;6763;48.524;9.044;2022-08-19T01:52:38;11.27;;;8.85;;
13386;SDS011;6763;48.524;9.044;2022-08-19T01:55:06;11.52;;;8.85;;
13386;SDS011;6763;48.524;9.044;2022-08-19T01:57:33;10.18;;;8.55;;
13386;SDS011;6763;48.524;9.044;2022-08-19T01:59:59;13.05;;;9.43;;
13386;SDS011;6763;48.524;9.044;2022-08-19T02:02:28;10.90;;;8.48;;
13386;SDS011;6763;48.524;9.044;2022-08-19T02:04:53;11.43;;;9.63;;
13386;SDS011;6763;48.524;9.044;2022-08-19T02:07:19;10.95;;;9.30;;
13386;SDS011;6763;48.524;9.044;2022-08-19T02:09:46;12.57;;;9.35;;
13386;SDS011;6763;48.524;9.044;2022-08-19T02:12:13;10.85;;;8.15;;
13386;SDS011;6763;48.524;9.044;2022-08-19T02:14:39;9.68;;;8.18;;
13386;SDS011;6763;48.524;9.044;2022-08-19T02:17:04;11.30;;;9.00;;
13386;SDS011;6763;48.524;9.044;2022-08-19T02:19:29;12.00;;;8.98;;
13386;SDS011;6763;48.524;9.044;2022-08-19T02:21:57;15.02;;;9.52;;
13386;SDS011;6763;48.524;9.044;2022-08-19T02:24:23;10.98;;;8.80;;
13386;SDS011;6763;48.524;9.044;2022-08-19T02:26:48;11.38;;;9.45;;
13386;SDS011;6763;48.524;9.044;2022-08-19T02:29:14;13.75;;;10.02;;
13386;SDS011;6763;48.524;9.044;2022-08-19T02:31:39;12.95;;;9.43;;
13386;SDS011;6763;48.524;9.044;2022-08-19T02:34:05;13.90;;;10.15;;
13386;SDS011;6763;48.524;9.044;2022-08-19T02:36:30;14.05;;;9.77;;
13386;SDS011;6763;48.524;9.044;2022-08-19T02:38:55;15.77;;;9.93;;
13386;SDS011;6763;48.524;9.044;2022-08-19T02:41:22;13.38;;;9.55;;
13386;SDS011;6763;48.524;9.044;2022-08-19T02:43:50;11.73;;;9.25;;
13386;SDS011;6763;48.524;9.044;2022-08-19T02:48:45;11.85;;;9.10;;
13386;SDS011;6763;48.524;9.044;2022-08-19T02:51:15;12.85;;;9.35;;
13386;SDS011;6763;48.524;9.044;2022-08-19T02:53:44;12.88;;;9.52;;
13386;SDS011;6763;48.524;9.044;2022-08-19T02:56:09;14.15;;;9.82;;
13386;SDS011;6763;48.524;9.044;2022-08-19T02:58:35;13.00;;;9.65;;
13386;SDS011;6763;48.524;9.044;2022-08-19T03:01:00;11.98;;;9.48;;
13386;SDS011;6763;48.524;9.044;2022-08-19T03:03:26;13.35;;;9.50;;
13386;SDS011;6763;48.524;9.044;2022-08-19T03:05:51;12.10;;;9.43;;
13386;SDS011;6763;48.524;9.044;2022-08-19T03:08:26;14.73;;;9.88;;
13386;SDS011;6763;48.524;9.044;2022-08-19T03:10:52;13.23;;;9.77;;
13386;SDS011;6763;48.524;9.044;2022-08-19T03:13:18;14.02;;;10.10;;
13386;SDS011;6763;48.524;9.044;2022-08-19T03:15:45;14.45;;;10.88;;
13386;SDS011;6763;48.524;9.044;2022-08-19T03:18:12;16.02;;;11.25;;
13386;SDS011;6763;48.524;9.044;2022-08-19T03:20:46;15.65;;;11.15;;
13386;SDS011;6763;48.524;9.044;2022-08-19T03:23:15;15.82;;;11.45;;
13386;SDS011;6763;48.524;9.044;2022-08-19T03:25:42;16.05;;;12.10;;
13386;SDS011;6763;48.524;9.044;2022-08-19T03:28:13;16.70;;;10.55;;
13386;SDS011;6763;48.524;9.044;2022-08-19T03:30:39;15.85;;;10.95;;
13386;SDS011;6763;48.524;9.044;2022-08-19T03:33:07;15.55;;;11.27;;
13386;SDS011;6763;48.524;9.044;2022-08-19T03:35:33;16.75;;;11.52;;
13386;SDS011;6763;48.524;9.044;2022-08-19T03:38:02;17.63;;;11.65;;
13386;SDS011;6763;48.524;9.044;2022-08-19T03:40:31;15.23;;;11.05;;
13386;SDS011;6763;48.524;9.044;2022-08-19T03:42:59;16.25;;;11.45;;
13386;SDS011;6763;48.524;9.044;2022-08-19T03:45:25;17.25;;;11.25;;
13386;SDS011;6763;48.524;9.044;2022-08-19T03:47:51;15.40;;;10.60;;
13386;SDS011;6763;48.524;9.044;2022-08-19T03:50:16;16.48;;;11.70;;
13386;SDS011;6763;48.524;9.044;2022-08-19T03:52:42;16.58;;;11.35;;
13386;SDS011;6763;48.524;9.044;2022-08-19T03:55:13;14.80;;;10.82;;
13386;SDS011;6763;48.524;9.044;2022-08-19T03:57:38;16.17;;;10.10;;
13386;SDS011;6763;48.524;9.044;2022-08-19T04:00:04;26.85;;;18.20;;
13386;SDS011;6763;48.524;9.044;2022-08-19T04:02:31;24.90;;;17.85;;
13386;SDS011;6763;48.524;9.044;2022-08-19T04:04:56;23.92;;;16.73;;
13386;SDS011;6763;48.524;9.044;2022-08-19T04:07:22;26.27;;;17.55;;
13386;SDS011;6763;48.524;9.044;2022-08-19T04:09:48;27.45;;;18.38;;
13386;SDS011;6763;48.524;9.044;2022-08-19T04:12:14;25.55;;;17.08;;
13386;SDS011;6763;48.524;9.044;2022-08-19T04:14:39;27.90;;;18.25;;
13386;SDS011;6763;48.524;9.044;2022-08-19T04:17:05;27.60;;;18.23;;
13386;SDS011;6763;48.524;9.044;2022-08-19T04:19:31;29.83;;;18.52;;
13386;SDS011;6763;48.524;9.044;2022-08-19T04:21:58;26.67;;;15.52;;
13386;SDS011;6763;48.524;9.044;2022-08-19T04:24:23;23.40;;;18.15;;
13386;SDS011;6763;48.524;9.044;2022-08-19T04:26:49;27.35;;;15.43;;
13386;SDS011;6763;48.524;9.044;2022-08-19T04:29:24;25.80;;;16.20;;
13386;SDS011;6763;48.524;9.044;2022-08-19T04:31:52;23.90;;;16.27;;
13386;SDS011;6763;48.524;9.044;2022-08-19T04:34:19;22.60;;;16.45;;
13386;SDS011;6763;48.524;9.044;2022-08-19T04:36:47;37.67;;;17.73;;
13386;SDS011;6763;48.524;9.044;2022-08-19T04:39:17;34.42;;;18.15;;
13386;SDS011;6763;48.524;9.044;2022-08-19T04:41:44;26.63;;;18.58;;
13386;SDS011;6763;48.524;9.044;2022-08-19T04:44:29;32.47;;;19.20;;
13386;SDS011;6763;48.524;9.044;2022-08-19T04:46:58;30.52;;;19.63;;
13386;SDS011;6763;48.524;9.044;2022-08-19T04:49:23;26.02;;;16.23;;
13386;SDS011;6763;48.524;9.044;2022-08-19T04:51:51;22.58;;;15.68;;
13386;SDS011;6763;48.524;9.044;2022-08-19T04:54:18;19.35;;;13.57;;
13386;SDS011;6763;48.524;9.044;2022-08-19T04:56:47;23.92;;;16.88;;
13386;SDS011;6763;48.524;9.044;2022-08-19T04:59:14;26.02;;;16.67;;
13386;SDS011;6763;48.524;9.044;2022-08-19T05:01:42;31.25;;;18.85;;
13386;SDS011;6763;48.524;9.044;2022-08-19T05:04:08;32.53;;;22.40;;
13386;SDS011;6763;48.524;9.044;2022-08-19T05:06:34;36.45;;;20.83;;
13386;SDS011;6763;48.524;9.044;2022-08-19T05:09:01;29.85;;;20.85;;
13386;SDS011;6763;48.524;9.044;2022-08-19T05:11:30;25.25;;;18.05;;
13386;SDS011;6763;48.524;9.044;2022-08-19T05:13:58;31.08;;;22.13;;
13386;SDS011;6763;48.524;9.044;2022-08-19T05:16:24;33.53;;;21.60;;
13386;SDS011;6763;48.524;9.044;2022-08-19T05:18:51;30.42;;;20.67;;
13386;SDS011;6763;48.524;9.044;2022-08-19T05:21:36;36.20;;;21.30;;
13386;SDS011;6763;48.524;9.044;2022-08-19T05:24:21;27.85;;;18.58;;
13386;SDS011;6763;48.524;9.044;2022-08-19T05:26:48;35.03;;;21.92;;
13386;SDS011;6763;48.524;9.044;2022-08-19T05:29:17;29.90;;;21.25;;
13386;SDS011;6763;48.524;9.044;2022-08-19T05:31:45;27.83;;;17.50;;
13386;SDS011;6763;48.524;9.044;2022-08-19T05:34:14;27.80;;;16.13;;
13386;SDS011;6763;48.524;9.044;2022-08-19T05:36:40;20.33;;;14.10;;
13386;SDS011;6763;48.524;9.044;2022-08-19T05:39:08;19.70;;;13.15;;
13386;SDS011;6763;48.524;9.044;2022-08-19T05:41:40;17.05;;;10.70;;
13386;SDS011;6763;48.524;9.044;2022-08-19T05:44:10;12.63;;;9.23;;
13386;SDS011;6763;48.524;9.044;2022-08-19T05:46:36;12.80;;;7.72;;
13386;SDS011;6763;48.524;9.044;2022-08-19T05:49:06;12.05;;;8.18;;
13386;SDS011;6763;48.524;9.044;2022-08-19T05:51:33;12.18;;;8.48;;
13386;SDS011;6763;48.524;9.044;2022-08-19T05:54:00;11.65;;;7.90;;
13386;SDS011;6763;48.524;9.044;2022-08-19T05:56:30;11.15;;;8.07;;
13386;SDS011;6763;48.524;9.044;2022-08-19T05:58:56;11.20;;;8.27;;
13386;SDS011;6763;48.524;9.044;2022-08-19T06:01:23;13.07;;;8.40;;
13386;SDS011;6763;48.524;9.044;2022-08-19T06:03:50;10.63;;;8.13;;
13386;SDS011;6763;48.524;9.044;2022-08-19T06:06:16;13.38;;;8.70;;
13386;SDS011;6763;48.524;9.044;2022-08-19T06:08:43;12.52;;;7.95;;
13386;SDS011;6763;48.524;9.044;2022-08-19T06:13:39;9.98;;;7.72;;
13386;SDS011;6763;48.524;9.044;2022-08-19T06:16:05;10.93;;;8.52;;
13386;SDS011;6763;48.524;9.044;2022-08-19T06:18:30;12.30;;;8.30;;
13386;SDS011;6763;48.524;9.044;2022-08-19T06:20:56;12.32;;;8.70;;
13386;SDS011;6763;48.524;9.044;2022-08-19T06:23:21;10.32;;;8.20;;
13386;SDS011;6763;48.524;9.044;2022-08-19T06:25:47;12.98;;;8.95;;
13386;SDS011;6763;48.524;9.044;2022-08-19T06:28:12;13.40;;;8.50;;
13386;SDS011;6763;48.524;9.044;2022-08-19T06:30:38;14.35;;;8.80;;
13386;SDS011;6763;48.524;9.044;2022-08-19T06:33:03;11.23;;;8.30;;
13386;SDS011;6763;48.524;9.044;2022-08-19T06:35:28;10.07;;;8.02;;
13386;SDS011;6763;48.524;9.044;2022-08-19T06:37:54;14.05;;;9.75;;
13386;SDS011;6763;48.524;9.044;2022-08-19T06:40:20;11.35;;;8.68;;
13386;SDS011;6763;48.524;9.044;2022-08-19T06:42:45;13.60;;;8.75;;
13386;SDS011;6763;48.524;9.044;2022-08-19T06:45:11;12.02;;;9.27;;
13386;SDS011;6763;48.524;9.044;2022-08-19T06:47:36;13.85;;;10.20;;
13386;SDS011;6763;48.524;9.044;2022-08-19T06:50:02;12.27;;;9.05;;
13386;SDS011;6763;48.524;9.044;2022-08-19T06:52:29;10.10;;;8.10;;
13386;SDS011;6763;48.524;9.044;2022-08-19T06:54:55;12.00;;;9.10;;
13386;SDS011;6763;48.524;9.044;2022-08-19T06:57:21;11.18;;;9.18;;
13386;SDS011;6763;48.524;9.044;2022-08-19T06:59:50;11.98;;;9.48;;
13386;SDS011;6763;48.524;9.044;2022-08-19T07:02:16;13.90;;;10.30;;
13386;SDS011;6763;48.524;9.044;2022-08-19T07:04:42;12.52;;;9.50;;
13386;SDS011;6763;48.524;9.044;2022-08-19T07:07:10;12.85;;;8.90;;
13386;SDS011;6763;48.524;9.044;2022-08-19T07:09:39;11.10;;;8.90;;
13386;SDS011;6763;48.524;9.044;2022-08-19T07:12:07;12.05;;;9.60;;
13386;SDS011;6763;48.524;9.044;2022-08-19T07:14:34;11.85;;;9.15;;
13386;SDS011;6763;48.524;9.044;2022-08-19T07:17:02;12.95;;;8.80;;
13386;SDS011;6763;48.524;9.044;2022-08-19T07:19:29;11.45;;;8.40;;
13386;SDS011;6763;48.524;9.044;2022-08-19T07:21:54;13.50;;;9.48;;
13386;SDS011;6763;48.524;9.044;2022-08-19T07:24:24;11.80;;;9.15;;
13386;SDS011;6763;48.524;9.044;2022-08-19T07:26:51;12.40;;;9.15;;
13386;SDS011;6763;48.524;9.044;2022-08-19T07:29:19;14.50;;;10.02;;
13386;SDS011;6763;48.524;9.044;2022-08-19T07:31:48;12.80;;;9.95;;
13386;SDS011;6763;48.524;9.044;2022-08-19T07:34:16;11.75;;;8.55;;
13386;SDS011;6763;48.524;9.044;2022-08-19T07:36:43;13.10;;;8.98;;
13386;SDS011;6763;48.524;9.044;2022-08-19T07:39:13;10.90;;;8.63;;
13386;SDS011;6763;48.524;9.044;2022-08-19T07:41:41;11.23;;;9.00;;
13386;SDS011;6763;48.524;9.044;2022-08-19T07:44:07;12.10;;;8.52;;
13386;SDS011;6763;48.524;9.044;2022-08-19T07:46:34;15.27;;;9.85;;
13386;SDS011;6763;48.524;9.044;2022-08-19T07:49:02;14.25;;;9.07;;
13386;SDS011;6763;48.524;9.044;2022-08-19T07:51:29;12.50;;;9.40;;
13386;SDS011;6763;48.524;9.044;2022-08-19T07:53:55;15.77;;;9.98;;
13386;SDS011;6763;48.524;9.044;2022-08-19T07:56:21;13.55;;;9.60;;
13386;SDS011;6763;48.524;9.044;2022-08-19T07:58:48;12.77;;;9.90;;
13386;SDS011;6763;48.524;9.044;2022-08-19T08:01:16;15.80;;;10.35;;
13386;SDS011;6763;48.524;9.044;2022-08-19T08:03:48;14.13;;;10.63;;
13386;SDS011;6763;48.524;9.044;2022-08-19T08:06:33;14.20;;;10.60;;
13386;SDS011;6763;48.524;9.044;2022-08-19T08:09:21;12.98;;;9.23;;
13386;SDS011;6763;48.524;9.044;2022-08-19T08:11:54;11.85;;;9.32;;
13386;SDS011;6763;48.524;9.044;2022-08-19T08:14:31;13.00;;;9.80;;
13386;SDS011;6763;48.524;9.044;2022-08-19T08:17:00;11.90;;;9.55;;
13386;SDS011;6763;48.524;9.044;2022-08-19T08:19:26;11.93;;;9.20;;
13386;SDS011;6763;48.524;9.044;2022-08-19T08:21:53;13.60;;;9.90;;
13386;SDS011;6763;48.524;9.044;2022-08-19T08:24:21;13.48;;;9.43;;
13386;SDS011;6763;48.524;9.044;2022-08-19T08:26:47;13.05;;;10.25;;
13386;SDS011;6763;48.524;9.044;2022-08-19T08:29:13;12.10;;;9.65;;
13386;SDS011;6763;48.524;9.044;2022-08-19T08:31:40;13.13;;;10.35;;
13386;SDS011;6763;48.524;9.044;2022-08-19T08:34:08;14.18;;;9.90;;
13386;SDS011;6763;48.524;9.044;2022-08-19T08:36:42;14.13;;;10.02;;
13386;SDS011;6763;48.524;9.044;2022-08-19T08:39:10;13.85;;;10.13;;
13386;SDS011;6763;48.524;9.044;2022-08-19T08:41:44;11.95;;;9.20;;
13386;SDS011;6763;48.524;9.044;2022-08-19T08:44:23;13.85;;;9.73;;
13386;SDS011;6763;48.524;9.044;2022-08-19T08:46:58;12.90;;;9.00;;
13386;SDS011;6763;48.524;9.044;2022-08-19T08:49:36;11.25;;;8.65;;
13386;SDS011;6763;48.524;9.044;2022-08-19T08:52:11;10.55;;;8.77;;
13386;SDS011;6763;48.524;9.044;2022-08-19T08:54:44;11.07;;;8.75;;
13386;SDS011;6763;48.524;9.044;2022-08-19T08:57:14;11.55;;;8.95;;
13386;SDS011;6763;48.524;9.044;2022-08-19T08:59:47;12.45;;;7.55;;
13386;SDS011;6763;48.524;9.044;2022-08-19T09:02:16;12.45;;;9.13;;
13386;SDS011;6763;48.524;9.044;2022-08-19T09:04:42;12.15;;;8.98;;
13386;SDS011;6763;48.524;9.044;2022-08-19T09:09:40;11.02;;;8.50;;
13386;SDS011;6763;48.524;9.044;2022-08-19T09:17:13;10.02;;;7.82;;
13386;SDS011;6763;48.524;9.044;2022-08-19T09:19:49;12.63;;;9.27;;
13386;SDS011;6763;48.524;9.044;2022-08-19T09:22:17;13.68;;;8.98;;
13386;SDS011;6763;48.524;9.044;2022-08-19T09:24:43;10.43;;;8.30;;
13386;SDS011;6763;48.524;9.044;2022-08-19T09:27:08;10.60;;;8.73;;
13386;SDS011;6763;48.524;9.044;2022-08-19T09:29:33;11.13;;;8.27;;
13386;SDS011;6763;48.524;9.044;2022-08-19T09:31:59;11.15;;;8.80;;
13386;SDS011;6763;48.524;9.044;2022-08-19T09:34:24;9.98;;;8.27;;
13386;SDS011;6763;48.524;9.044;2022-08-19T09:36:50;10.57;;;8.75;;
13386;SDS011;6763;48.524;9.044;2022-08-19T09:39:20;10.80;;;8.70;;
13386;SDS011;6763;48.524;9.044;2022-08-19T09:41:46;9.93;;;8.00;;
13386;SDS011;6763;48.524;9.044;2022-08-19T09:44:11;9.50;;;7.72;;
13386;SDS011;6763;48.524;9.044;2022-08-19T09:46:37;9.50;;;8.05;;
13386;SDS011;6763;48.524;9.044;2022-08-19T09:49:03;10.50;;;7.88;;
13386;SDS011;6763;48.524;9.044;2022-08-19T09:51:31;11.45;;;8.75;;
13386;SDS011;6763;48.524;9.044;2022-08-19T09:53:58;11.02;;;8.40;;
13386;SDS011;6763;48.524;9.044;2022-08-19T09:56:25;9.77;;;8.05;;
13386;SDS011;6763;48.524;9.044;2022-08-19T09:58:51;10.18;;;8.10;;
13386;SDS011;6763;48.524;9.044;2022-08-19T10:01:24;10.55;;;7.72;;
13386;SDS011;6763;48.524;9.044;2022-08-19T10:03:54;11.10;;;8.52;;
13386;SDS011;6763;48.524;9.044;2022-08-19T10:06:25;10.77;;;8.95;;
13386;SDS011;6763;48.524;9.044;2022-08-19T10:08:54;10.18;;;8.10;;
13386;SDS011;6763;48.524;9.044;2022-08-19T10:11:19;10.38;;;7.80;;
13386;SDS011;6763;48.524;9.044;2022-08-19T10:13:46;9.60;;;7.82;;
13386;SDS011;6763;48.524;9.044;2022-08-19T10:16:13;10.27;;;8.20;;
13386;SDS011;6763;48.524;9.044;2022-08-19T10:18:42;11.68;;;9.13;;
13386;SDS011;6763;48.524;9.044;2022-08-19T10:21:12;13.77;;;9.43;;
13386;SDS011;6763;48.524;9.044;2022-08-19T10:23:40;10.88;;;8.27;;
13386;SDS011;6763;48.524;9.044;2022-08-19T10:26:12;11.40;;;8.35;;
13386;SDS011;6763;48.524;9.044;2022-08-19T10:28:39;11.95;;;9.05;;
13386;SDS011;6763;48.524;9.044;2022-08-19T10:31:09;10.57;;;8.43;;
13386;SDS011;6763;48.524;9.044;2022-08-19T10:33:37;13.45;;;9.77;;
13386;SDS011;6763;48.524;9.044;2022-08-19T10:36:05;10.30;;;8.10;;
13386;SDS011;6763;48.524;9.044;2022-08-19T10:38:37;13.70;;;9.07;;
13386;SDS011;6763;48.524;9.044;2022-08-19T10:41:12;14.02;;;9.85;;
13386;SDS011;6763;48.524;9.044;2022-08-19T10:43:42;11.27;;;8.68;;
13386;SDS011;6763;48.524;9.044;2022-08-19T10:46:10;13.02;;;9.77;;
13386;SDS011;6763;48.524;9.044;2022-08-19T10:48:38;11.93;;;9.68;;
13386;SDS011;6763;48.524;9.044;2022-08-19T10:51:04;11.45;;;9.13;;
13386;SDS011;6763;48.524;9.044;2022-08-19T10:53:48;11.88;;;8.95;;
13386;SDS011;6763;48.524;9.044;2022-08-19T10:56:14;11.73;;;9.30;;
13386;SDS011;6763;48.524;9.044;2022-08-19T10:58:59;13.02;;;9.95;;
13386;SDS011;6763;48.524;9.044;2022-08-19T11:01:26;12.15;;;9.40;;
13386;SDS011;6763;48.524;9.044;2022-08-19T11:03:51;11.27;;;9.07;;
13386;SDS011;6763;48.524;9.044;2022-08-19T11:06:17;12.13;;;8.80;;
13386;SDS011;6763;48.524;9.044;2022-08-19T11:08:44;11.85;;;9.20;;
13386;SDS011;6763;48.524;9.044;2022-08-19T11:11:10;10.57;;;9.32;;
13386;SDS011;6763;48.524;9.044;2022-08-19T11:13:36;11.93;;;9.30;;
13386;SDS011;6763;48.524;9.044;2022-08-19T11:16:08;12.35;;;8.82;;
13386;SDS011;6763;48.524;9.044;2022-08-19T11:18:37;12.05;;;9.20;;
13386;SDS011;6763;48.524;9.044;2022-08-19T11:21:15;11.82;;;9.18;;
13386;SDS011;6763;48.524;9.044;2022-08-19T11:23:44;10.40;;;8.10;;
13386;SDS011;6763;48.524;9.044;2022-08-19T11:26:10;12.27;;;9.27;;
13386;SDS011;6763;48.524;9.044;2022-08-19T11:28:36;10.38;;;8.35;;
13386;SDS011;6763;48.524;9.044;2022-08-19T11:31:02;11.63;;;9.35;;
13386;SDS011;6763;48.524;9.044;2022-08-19T11:33:28;12.25;;;9.25;;
13386;SDS011;6763;48.524;9.044;2022-08-19T11:35:56;11.38;;;8.52;;
13386;SDS011;6763;48.524;9.044;2022-08-19T11:38:22;12.07;;;9.35;;
13386;SDS011;6763;48.524;9.044;2022-08-19T11:40:53;11.75;;;9.35;;
13386;SDS011;6763;48.524;9.044;2022-08-19T11:43:23;10.38;;;8.35;;
13386;SDS011;6763;48.524;9.044;2022-08-19T11:45:49;11.00;;;8.48;;
13386;SDS011;6763;48.524;9.044;2022-08-19T11:48:15;10.75;;;8.45;;
13386;SDS011;6763;48.524;9.044;2022-08-19T11:50:40;10.13;;;7.97;;
13386;SDS011;6763;48.524;9.044;2022-08-19T11:53:07;11.85;;;8.70;;
13386;SDS011;6763;48.524;9.044;2022-08-19T11:55:32;12.02;;;8.95;;
13386;SDS011;6763;48.524;9.044;2022-08-19T11:57:57;11.93;;;9.25;;
13386;SDS011;6763;48.524;9.044;2022-08-19T12:00:23;9.85;;;8.82;;
13386;SDS011;6763;48.524;9.044;2022-08-19T12:02:48;9.55;;;8.10;;
13386;SDS011;6763;48.524;9.044;2022-08-19T12:05:13;10.85;;;9.13;;
13386;SDS011;6763;48.524;9.044;2022-08-19T12:07:39;11.15;;;8.85;;
13386;SDS011;6763;48.524;9.044;2022-08-19T12:10:06;10.80;;;9.10;;
13386;SDS011;6763;48.524;9.044;2022-08-19T12:12:32;10.75;;;8.52;;
13386;SDS011;6763;48.524;9.044;2022-08-19T12:14:57;11.52;;;8.82;;
13386;SDS011;6763;48.524;9.044;2022-08-19T12:17:24;10.48;;;8.60;;
13386;SDS011;6763;48.524;9.044;2022-08-19T12:19:53;10.05;;;8.60;;
13386;SDS011;6763;48.524;9.044;2022-08-19T12:22:18;10.88;;;8.63;;
13386;SDS011;6763;48.524;9.044;2022-08-19T12:24:44;10.43;;;8.73;;
13386;SDS011;6763;48.524;9.044;2022-08-19T12:27:10;9.18;;;8.13;;
13386;SDS011;6763;48.524;9.044;2022-08-19T12:29:35;13.13;;;10.10;;
13386;SDS011;6763;48.524;9.044;2022-08-19T12:32:01;10.60;;;8.98;;
13386;SDS011;6763;48.524;9.044;2022-08-19T12:34:28;13.73;;;10.07;;
13386;SDS011;6763;48.524;9.044;2022-08-19T12:36:57;11.77;;;9.68;;
13386;SDS011;6763;48.524;9.044;2022-08-19T12:39:24;13.48;;;9.75;;
13386;SDS011;6763;48.524;9.044;2022-08-19T12:41:50;12.98;;;9.80;;
13386;SDS011;6763;48.524;9.044;2022-08-19T12:44:17;15.48;;;10.63;;
13386;SDS011;6763;48.524;9.044;2022-08-19T12:46:42;11.15;;;9.20;;
13386;SDS011;6763;48.524;9.044;2022-08-19T12:49:08;11.73;;;9.05;;
13386;SDS011;6763;48.524;9.044;2022-08-19T12:51:33;13.75;;;9.82;;
13386;SDS011;6763;48.524;9.044;2022-08-19T12:53:58;11.43;;;9.55;;
13386;SDS011;6763;48.524;9.044;2022-08-19T12:56:24;12.23;;;9.50;;
13386;SDS011;6763;48.524;9.044;2022-08-19T12:58:49;10.82;;;9.13;;
13386;SDS011;6763;48.524;9.044;2022-08-19T13:01:15;10.35;;;9.02;;
13386;SDS011;6763;48.524;9.044;2022-08-19T13:03:42;11.82;;;9.68;;
13386;SDS011;6763;48.524;9.044;2022-08-19T13:06:10;10.40;;;8.95;;
13386;SDS011;6763;48.524;9.044;2022-08-19T13:08:35;10.35;;;9.20;;
13386;SDS011;6763;48.524;9.044;2022-08-19T13:11:11;11.25;;;9.27;;
13386;SDS011;6763;48.524;9.044;2022-08-19T13:13:40;9.57;;;8.57;;
13386;SDS011;6763;48.524;9.044;2022-08-19T13:16:07;11.57;;;9.32;;
13386;SDS011;6763;48.524;9.044;2022-08-19T13:18:37;11.88;;;9.52;;
13386;SDS011;6763;48.524;9.044;2022-08-19T13:21:04;11.57;;;9.45;;
13386;SDS011;6763;48.524;9.044;2022-08-19T13:23:32;9.43;;;8.10;;
13386;SDS011;6763;48.524;9.044;2022-08-19T13:25:59;10.30;;;8.73;;
13386;SDS011;6763;48.524;9.044;2022-08-19T13:28:28;10.30;;;8.25;;
13386;SDS011;6763;48.524;9.044;2022-08-19T13:31:20;10.05;;;7.97;;
13386;SDS011;6763;48.524;9.044;2022-08-19T13:34:06;9.90;;;7.75;;
13386;SDS011;6763;48.524;9.044;2022-08-19T13:36:32;9.60;;;7.72;;
13386;SDS011;6763;48.524;9.044;2022-08-19T13:38:58;9.18;;;8.20;;
13386;SDS011;6763;48.524;9.044;2022-08-19T13:41:24;10.07;;;8.23;;
13386;SDS011;6763;48.524;9.044;2022-08-19T13:43:50;9.35;;;7.75;;
13386;SDS011;6763;48.524;9.044;2022-08-19T13:46:16;8.18;;;6.75;;
13386;SDS011;6763;48.524;9.044;2022-08-19T13:48:41;9.18;;;7.88;;
13386;SDS011;6763;48.524;9.044;2022-08-19T13:51:07;8.35;;;7.35;;
13386;SDS011;6763;48.524;9.044;2022-08-19T13:53:36;8.20;;;6.72;;
13386;SDS011;6763;48.524;9.044;2022-08-19T13:56:06;8.82;;;7.72;;
13386;SDS011;6763;48.524;9.044;2022-08-19T13:58:32;9.65;;;7.63;;
13386;SDS011;6763;48.524;9.044;2022-08-19T14:00:58;8.82;;;7.63;;
13386;SDS011;6763;48.524;9.044;2022-08-19T14:03:24;11.77;;;8.52;;
13386;SDS011;6763;48.524;9.044;2022-08-19T14:05:50;8.98;;;7.13;;
13386;SDS011;6763;48.524;9.044;2022-08-19T14:08:15;8.55;;;7.65;;
13386;SDS011;6763;48.524;9.044;2022-08-19T14:10:41;8.50;;;7.28;;
13386;SDS011;6763;48.524;9.044;2022-08-19T14:13:09;8.95;;;7.68;;
13386;SDS011;6763;48.524;9.044;2022-08-19T14:15:35;9.35;;;8.35;;
13386;SDS011;6763;48.524;9.044;2022-08-19T14:18:02;10.43;;;8.55;;
13386;SDS011;6763;48.524;9.044;2022-08-19T14:20:28;9.38;;;7.53;;
13386;SDS011;6763;48.524;9.044;2022-08-19T14:22:54;10.25;;;7.90;;
13386;SDS011;6763;48.524;9.044;2022-08-19T14:25:21;10.50;;;8.20;;
13386;SDS011;6763;48.524;9.044;2022-08-19T14:27:49;9.18;;;7.72;;
13386;SDS011;6763;48.524;9.044;2022-08-19T14:30:16;8.95;;;7.50;;
13386;SDS011;6763;48.524;9.044;2022-08-19T14:32:44;8.85;;;7.90;;
13386;SDS011;6763;48.524;9.044;2022-08-19T14:35:10;9.90;;;8.30;;
13386;SDS011;6763;48.524;9.044;2022-08-19T14:37:37;9.13;;;7.45;;
13386;SDS011;6763;48.524;9.044;2022-08-19T14:40:04;9.57;;;7.60;;
13386;SDS011;6763;48.524;9.044;2022-08-19T14:42:30;7.72;;;6.93;;
13386;SDS011;6763;48.524;9.044;2022-08-19T14:44:58;9.25;;;7.55;;
13386;SDS011;6763;48.524;9.044;2022-08-19T14:47:25;8.68;;;7.10;;
13386;SDS011;6763;48.524;9.044;2022-08-19T14:49:51;8.93;;;8.02;;
13386;SDS011;6763;48.524;9.044;2022-08-19T14:52:16;8.77;;;7.43;;
13386;SDS011;6763;48.524;9.044;2022-08-19T14:54:42;8.60;;;7.70;;
13386;SDS011;6763;48.524;9.044;2022-08-19T14:57:07;8.35;;;7.55;;
13386;SDS011;6763;48.524;9.044;2022-08-19T14:59:37;8.65;;;7.20;;
13386;SDS011;6763;48.524;9.044;2022-08-19T15:02:03;7.72;;;6.93;;
13386;SDS011;6763;48.524;9.044;2022-08-19T15:04:28;8.40;;;7.05;;